Time;durP1;ratioP1;P1;durP2;ratioP2;P2;SDS_P1;SDS_P2;PMS_P1;PMS_P2;Temp;Humidity;BMP_temperature;BMP_pressure;BME280_temperature;BME280_humidity;BME280_pressure;Samples;Min_cycle;Max_cycle;Signal;HPM_P1;HPM_P2
2024/04/07 00:00:23;;;;;;;0.30;0.20;;;18.50;93.20;;;;;;4230946;28;20048;-57
2024/04/07 00:02:25;;;;;;;1.00;0.65;;;18.50;93.00;;;;;;4231184;28;20051;-59
2024/04/07 00:04:26;;;;;;;0.38;0.17;;;18.50;93.00;;;;;;4231191;28;20062;-58
2024/04/07 00:06:27;;;;;;;1.42;0.50;;;18.50;93.10;;;;;;4230982;28;20048;-57
2024/04/07 00:08:28;;;;;;;1.38;0.25;;;18.50;93.30;;;;;;4230864;28;20476;-57
2024/04/07 00:10:31;;;;;;;0.28;0.25;;;18.50;92.90;;;;;;4230789;28;20459;-55
2024/04/07 00:12:32;;;;;;;0.63;0.57;;;18.40;92.70;;;;;;4230714;28;20036;-61
2024/04/07 00:14:33;;;;;;;0.45;0.30;;;18.50;92.70;;;;;;4231013;28;20047;-58
2024/04/07 00:16:34;;;;;;;0.73;0.30;;;18.40;92.60;;;;;;4231031;28;20051;-58
2024/04/07 00:18:35;;;;;;;3.20;0.25;;;18.40;92.60;;;;;;4230988;28;20060;-58
2024/04/07 00:20:38;;;;;;;0.10;0.10;;;18.30;92.30;;;;;;4231047;28;20127;-57
2024/04/07 00:22:39;;;;;;;0.22;0.10;;;18.30;92.30;;;;;;4213574;28;20121;-57
2024/04/07 00:24:40;;;;;;;0.38;0.35;;;18.40;92.20;;;;;;4230800;28;20054;-58
2024/04/07 00:26:43;;;;;;;0.10;0.10;;;18.30;92.40;;;;;;4231103;28;20424;-59
2024/04/07 00:28:44;;;;;;;0.22;0.10;;;18.40;92.00;;;;;;4231106;28;20047;-57
2024/04/07 00:30:45;;;;;;;1.23;0.20;;;18.40;92.20;;;;;;4230672;28;20043;-58
2024/04/07 00:32:46;;;;;;;0.52;0.38;;;18.30;92.20;;;;;;4213624;28;20052;-57
2024/04/07 00:34:48;;;;;;;0.90;0.45;;;18.30;92.00;;;;;;4230553;28;20565;-57
2024/04/07 00:36:49;;;;;;;0.22;0.10;;;18.30;91.70;;;;;;4230055;28;20187;-58
2024/04/07 00:38:50;;;;;;;1.17;0.80;;;18.30;91.50;;;;;;4230564;28;20043;-60
2024/04/07 00:40:55;;;;;;;1.15;0.20;;;18.30;91.50;;;;;;4230370;28;20048;-58
2024/04/07 00:42:57;;;;;;;0.15;0.15;;;18.30;91.50;;;;;;4213976;28;20052;-58
2024/04/07 00:44:59;;;;;;;1.25;0.63;;;18.30;91.30;;;;;;4230698;28;20050;-64
2024/04/07 00:47:00;;;;;;;0.60;0.13;;;18.30;91.20;;;;;;4213949;28;20048;-57
2024/04/07 00:49:02;;;;;;;2.60;0.20;;;18.30;91.20;;;;;;4230810;28;20048;-58
2024/04/07 00:51:05;;;;;;;0.10;0.10;;;18.30;90.90;;;;;;4230763;28;20078;-57
2024/04/07 00:53:06;;;;;;;1.02;0.20;;;18.30;91.10;;;;;;4230416;28;20590;-59
2024/04/07 00:55:08;;;;;;;0.10;0.10;;;18.20;91.10;;;;;;4230270;28;20052;-57
2024/04/07 00:57:10;;;;;;;0.00;0.00;;;18.20;91.30;;;;;;4230256;28;20048;-59
2024/04/07 00:59:12;;;;;;;0.10;0.10;;;18.20;91.00;;;;;;4229908;28;20047;-58
2024/04/07 01:01:14;;;;;;;0.38;0.25;;;18.20;91.20;;;;;;4230327;28;20055;-57
2024/04/07 01:03:16;;;;;;;1.00;0.13;;;18.20;91.10;;;;;;4230079;28;20044;-58
2024/04/07 01:05:17;;;;;;;0.15;0.10;;;18.10;91.10;;;;;;4230585;28;20044;-58
2024/04/07 01:07:19;;;;;;;0.10;0.10;;;18.10;90.90;;;;;;4230648;28;20039;-57
2024/04/07 01:09:21;;;;;;;0.10;0.10;;;18.10;91.00;;;;;;4230420;28;20051;-57
2024/04/07 01:11:26;;;;;;;1.10;0.47;;;18.10;91.20;;;;;;4230061;28;20044;-58
2024/04/07 01:13:27;;;;;;;0.25;0.10;;;18.10;91.30;;;;;;4230013;28;20052;-58
2024/04/07 01:15:30;;;;;;;0.15;0.10;;;18.10;91.10;;;;;;4230054;28;20048;-57
2024/04/07 01:17:32;;;;;;;0.10;0.10;;;18.10;91.20;;;;;;4230115;28;20459;-59
2024/04/07 01:19:34;;;;;;;2.25;1.10;;;18.00;91.40;;;;;;4230053;28;20047;-57
2024/04/07 01:21:35;;;;;;;1.17;0.63;;;18.00;91.70;;;;;;4229935;28;20047;-58
2024/04/07 01:23:37;;;;;;;0.20;0.20;;;18.00;91.40;;;;;;4229663;28;20532;-57
2024/04/07 01:25:38;;;;;;;1.80;0.57;;;18.00;91.30;;;;;;4230166;28;20047;-58
2024/04/07 01:27:40;;;;;;;0.13;0.10;;;17.90;91.50;;;;;;4229901;28;20108;-59
2024/04/07 01:29:41;;;;;;;0.90;0.30;;;17.90;91.20;;;;;;4230168;28;20048;-57
2024/04/07 01:31:42;;;;;;;0.50;0.17;;;17.90;91.30;;;;;;4229920;28;20058;-57
2024/04/07 01:33:44;;;;;;;0.00;0.00;;;17.90;91.50;;;;;;4229839;28;20079;-58
2024/04/07 01:35:46;;;;;;;0.10;0.10;;;17.90;91.70;;;;;;4229466;28;20056;-57
2024/04/07 01:37:48;;;;;;;1.08;0.20;;;17.90;91.70;;;;;;4229701;28;20137;-64
2024/04/07 01:39:50;;;;;;;0.25;0.10;;;17.90;91.60;;;;;;4229936;28;20055;-58
2024/04/07 01:41:51;;;;;;;0.43;0.30;;;17.80;91.40;;;;;;4229655;28;20047;-63
2024/04/07 01:43:53;;;;;;;1.48;0.35;;;17.80;91.50;;;;;;4229990;28;20482;-61
2024/04/07 01:45:54;;;;;;;0.30;0.30;;;17.80;91.60;;;;;;4230057;28;20054;-58
2024/04/07 01:47:55;;;;;;;0.00;0.00;;;17.70;91.90;;;;;;4229723;28;20466;-62
2024/04/07 01:49:56;;;;;;;0.10;0.10;;;17.80;91.70;;;;;;4229402;28;20073;-60
2024/04/07 01:51:57;;;;;;;0.20;0.20;;;17.70;91.60;;;;;;4229581;28;20048;-58
2024/04/07 01:53:59;;;;;;;0.30;0.20;;;17.70;91.80;;;;;;4229582;28;20043;-58
2024/04/07 01:56:01;;;;;;;0.70;0.00;;;17.80;91.60;;;;;;4213030;28;20148;-58
2024/04/07 01:58:03;;;;;;;3.13;1.10;;;17.80;91.70;;;;;;4229960;28;20439;-58
2024/04/07 02:00:07;;;;;;;0.75;0.50;;;17.70;91.90;;;;;;4233178;28;20513;-58
2024/04/07 02:02:08;;;;;;;0.40;0.27;;;17.80;91.70;;;;;;4233557;28;20401;-58
2024/04/07 02:04:09;;;;;;;0.30;0.30;;;17.80;91.90;;;;;;4233328;28;20054;-64
2024/04/07 02:06:10;;;;;;;0.43;0.22;;;17.70;91.60;;;;;;4232412;28;20538;-58
2024/04/07 02:08:11;;;;;;;1.20;0.50;;;17.70;91.80;;;;;;4232964;28;20417;-58
2024/04/07 02:10:12;;;;;;;0.25;0.10;;;17.70;91.70;;;;;;4233030;28;20477;-58
2024/04/07 02:12:15;;;;;;;1.90;0.65;;;17.70;91.60;;;;;;4233002;28;20126;-58
2024/04/07 02:14:16;;;;;;;0.10;0.10;;;17.70;91.80;;;;;;4233010;28;20051;-60
2024/04/07 02:16:17;;;;;;;0.43;0.38;;;17.70;91.90;;;;;;4232952;28;20191;-58
2024/04/07 02:18:18;;;;;;;0.10;0.10;;;17.70;91.80;;;;;;4232898;28;20435;-57
2024/04/07 02:20:20;;;;;;;0.65;0.57;;;17.70;92.10;;;;;;4233406;28;20570;-57
2024/04/07 02:22:21;;;;;;;0.55;0.52;;;17.70;91.80;;;;;;4233862;28;20043;-57
2024/04/07 02:24:22;;;;;;;0.10;0.10;;;17.70;91.60;;;;;;4232996;28;20513;-58
2024/04/07 02:26:24;;;;;;;0.10;0.05;;;17.70;91.70;;;;;;4233097;28;20040;-60
2024/04/07 02:28:27;;;;;;;0.55;0.00;;;17.70;91.40;;;;;;4232956;28;20052;-57
2024/04/07 02:30:28;;;;;;;0.20;0.20;;;17.70;91.60;;;;;;4232727;28;20054;-58
2024/04/07 02:32:29;;;;;;;0.08;0.08;;;17.80;91.90;;;;;;4232612;28;20417;-57
2024/04/07 02:34:30;;;;;;;0.15;0.05;;;17.80;91.50;;;;;;4232194;28;20043;-58
2024/04/07 02:36:32;;;;;;;0.00;0.00;;;17.80;91.80;;;;;;4232630;28;20378;-55
2024/04/07 02:38:33;;;;;;;0.22;0.10;;;17.60;92.20;;;;;;4232839;28;20051;-56
2024/04/07 02:40:34;;;;;;;2.83;0.10;;;17.60;92.80;;;;;;4232519;28;20039;-57
2024/04/07 02:42:35;;;;;;;0.00;0.00;;;17.60;93.00;;;;;;4232928;28;20043;-56
2024/04/07 02:49:16;;;;;;;0.38;0.20;;;17.40;94.20;;;;;;4232837;28;20112;-56
2024/04/07 02:51:17;;;;;;;3.50;0.20;;;17.30;94.20;;;;;;4232527;28;20040;-59
2024/04/07 02:53:19;;;;;;;0.05;0.00;;;17.30;94.20;;;;;;4215568;28;20048;-56
2024/04/07 02:55:20;;;;;;;0.40;0.13;;;17.30;94.90;;;;;;4232394;28;20116;-58
2024/04/07 02:57:21;;;;;;;0.00;0.00;;;17.10;94.90;;;;;;4232425;28;20090;-58
2024/04/07 02:59:22;;;;;;;0.15;0.10;;;17.10;95.10;;;;;;4232170;28;20084;-56
2024/04/07 03:01:26;;;;;;;0.25;0.10;;;17.10;95.30;;;;;;4232213;28;20055;-59
2024/04/07 03:03:28;;;;;;;0.20;0.20;;;17.10;94.80;;;;;;4232362;28;20100;-58
2024/04/07 03:05:29;;;;;;;0.10;0.10;;;17.00;94.70;;;;;;4232189;28;20047;-55
2024/04/07 03:07:30;;;;;;;0.75;0.17;;;17.00;95.20;;;;;;4232169;28;20100;-55
2024/04/07 03:09:31;;;;;;;0.10;0.00;;;17.00;95.70;;;;;;4231822;28;20048;-55
2024/04/07 03:11:32;;;;;;;0.03;0.03;;;16.90;95.60;;;;;;4230887;28;20054;-56
2024/04/07 03:13:34;;;;;;;0.43;0.43;;;16.90;95.40;;;;;;4231985;28;20055;-55
2024/04/07 03:15:35;;;;;;;0.30;0.30;;;16.80;95.60;;;;;;4232222;28;20494;-55
2024/04/07 03:17:38;;;;;;;0.30;0.10;;;16.80;95.50;;;;;;4231863;28;20054;-62
2024/04/07 03:19:39;;;;;;;1.52;0.50;;;16.80;95.40;;;;;;4232327;28;20089;-61
2024/04/07 03:21:40;;;;;;;0.38;0.10;;;16.80;95.50;;;;;;4232278;28;20039;-59
2024/04/07 03:23:41;;;;;;;0.00;0.00;;;16.90;95.40;;;;;;4231670;28;20051;-56
2024/04/07 03:25:42;;;;;;;0.52;0.20;;;16.80;95.10;;;;;;4232006;28;20122;-57
2024/04/07 03:27:43;;;;;;;0.00;0.00;;;16.80;95.10;;;;;;4232548;28;20093;-64
2024/04/07 03:29:45;;;;;;;0.10;0.10;;;16.70;95.30;;;;;;4232172;28;20051;-55
2024/04/07 03:31:46;;;;;;;0.30;0.20;;;16.80;95.20;;;;;;4231522;28;20047;-55
2024/04/07 03:33:49;;;;;;;0.10;0.10;;;16.80;95.20;;;;;;4231594;28;20059;-58
2024/04/07 03:36:00;;;;;;;1.75;0.10;;;16.80;95.20;;;;;;4231482;28;20058;-55
2024/04/07 03:38:02;;;;;;;1.58;0.40;;;16.70;96.00;;;;;;4231890;28;20401;-54
2024/04/07 03:40:05;;;;;;;2.38;0.20;;;16.60;95.80;;;;;;4231561;28;20421;-54
2024/04/07 03:42:06;;;;;;;0.10;0.10;;;16.70;95.70;;;;;;4232112;28;20056;-55
2024/04/07 03:44:08;;;;;;;0.30;0.10;;;16.70;95.70;;;;;;4231659;28;20440;-56
2024/04/07 03:46:10;;;;;;;0.75;0.20;;;16.70;95.70;;;;;;4231498;28;20112;-57
2024/04/07 03:48:12;;;;;;;0.03;0.03;;;16.70;95.60;;;;;;4232094;28;20043;-55
2024/04/07 03:50:14;;;;;;;0.70;0.22;;;16.70;95.40;;;;;;4231481;28;20044;-56
2024/04/07 03:52:16;;;;;;;0.13;0.13;;;16.70;95.40;;;;;;4231514;28;20047;-56
2024/04/07 03:54:17;;;;;;;0.20;0.10;;;16.70;95.30;;;;;;4231186;28;20455;-55
2024/04/07 03:56:18;;;;;;;0.22;0.10;;;16.70;95.80;;;;;;4231226;28;20051;-55
2024/04/07 03:58:19;;;;;;;0.30;0.25;;;16.70;95.60;;;;;;4214408;28;20048;-58
2024/04/07 04:00:20;;;;;;;0.20;0.20;;;16.70;95.50;;;;;;4230838;28;20044;-57
2024/04/07 04:02:23;;;;;;;2.42;0.10;;;16.70;95.30;;;;;;4231485;28;20051;-54
2024/04/07 04:04:24;;;;;;;0.52;0.52;;;16.80;95.30;;;;;;4231401;28;20052;-54
2024/04/07 04:06:28;;;;;;;4.05;0.50;;;16.80;95.50;;;;;;4231129;28;20048;-55
2024/04/07 04:08:29;;;;;;;0.32;0.20;;;16.80;95.40;;;;;;4231090;28;20054;-57
2024/04/07 04:10:30;;;;;;;0.50;0.20;;;16.80;95.60;;;;;;4231022;28;20554;-57
2024/04/07 04:12:31;;;;;;;1.23;0.47;;;16.80;94.90;;;;;;4231138;28;20044;-65
2024/04/07 04:14:32;;;;;;;0.55;0.10;;;16.80;95.50;;;;;;4231172;28;20055;-56
2024/04/07 04:16:33;;;;;;;1.02;0.22;;;16.80;96.00;;;;;;4231208;28;20051;-57
2024/04/07 04:18:34;;;;;;;1.13;0.55;;;16.80;95.80;;;;;;4231932;28;20051;-58
2024/04/07 04:20:38;;;;;;;0.30;0.30;;;16.80;95.50;;;;;;4230949;28;20044;-58
2024/04/07 04:22:44;;;;;;;0.57;0.15;;;16.70;95.50;;;;;;4213703;28;20559;-54
2024/04/07 04:24:45;;;;;;;0.47;0.17;;;16.80;95.90;;;;;;4230817;28;20047;-56
2024/04/07 04:26:46;;;;;;;1.05;0.68;;;16.80;95.80;;;;;;4230633;28;20047;-55
2024/04/07 04:28:47;;;;;;;0.60;0.10;;;16.80;95.60;;;;;;4230513;28;20043;-56
2024/04/07 04:30:56;;;;;;;0.17;0.10;;;16.90;95.60;;;;;;4231017;28;20117;-56
2024/04/07 04:32:58;;;;;;;0.57;0.20;;;16.90;95.50;;;;;;4230613;28;20050;-57
2024/04/07 04:34:59;;;;;;;0.03;0.00;;;16.90;95.80;;;;;;4230665;28;20044;-57
2024/04/07 04:37:00;;;;;;;0.70;0.35;;;16.70;95.50;;;;;;4230625;28;20039;-56
2024/04/07 04:39:06;;;;;;;1.02;0.43;;;16.80;95.50;;;;;;4230864;28;20047;-56
2024/04/07 04:41:07;;;;;;;0.50;0.50;;;16.80;95.60;;;;;;4230789;28;20055;-57
2024/04/07 04:43:08;;;;;;;0.45;0.10;;;16.80;95.50;;;;;;4230748;28;20489;-57
2024/04/07 04:45:10;;;;;;;0.55;0.40;;;16.80;95.70;;;;;;4231306;28;20055;-59
2024/04/07 04:47:11;;;;;;;0.20;0.15;;;16.80;95.90;;;;;;4231029;28;20047;-61
2024/04/07 04:49:12;;;;;;;0.13;0.05;;;16.90;95.50;;;;;;4231094;28;20047;-62
2024/04/07 04:51:13;;;;;;;0.75;0.28;;;16.90;95.50;;;;;;4230496;28;20043;-56
2024/04/07 04:53:14;;;;;;;0.05;0.05;;;16.90;95.60;;;;;;4230333;28;20404;-55
2024/04/07 04:55:18;;;;;;;0.35;0.10;;;16.80;95.90;;;;;;4231058;28;20104;-58
2024/04/07 04:57:19;;;;;;;0.38;0.30;;;16.90;95.70;;;;;;4214062;28;20051;-62
2024/04/07 04:59:20;;;;;;;0.65;0.50;;;16.90;95.60;;;;;;4230073;28;20072;-55
2024/04/07 05:01:21;;;;;;;6.53;0.30;;;16.90;95.50;;;;;;4230608;28;20061;-55
2024/04/07 05:03:23;;;;;;;0.30;0.10;;;16.90;95.40;;;;;;4230342;28;20043;-54
2024/04/07 05:05:26;;;;;;;0.60;0.20;;;16.80;95.70;;;;;;4230050;28;20520;-55
2024/04/07 05:07:27;;;;;;;0.28;0.20;;;16.90;95.80;;;;;;4230442;28;20421;-59
2024/04/07 05:09:29;;;;;;;0.57;0.20;;;16.90;95.60;;;;;;4229964;28;20429;-56
2024/04/07 05:11:31;;;;;;;0.63;0.15;;;16.90;95.30;;;;;;4230094;28;20048;-56
2024/04/07 05:13:33;;;;;;;1.27;0.20;;;16.90;95.60;;;;;;4229787;28;20048;-57
2024/04/07 05:15:34;;;;;;;0.75;0.10;;;16.80;95.50;;;;;;4230235;28;20044;-58
2024/04/07 05:17:35;;;;;;;0.80;0.17;;;16.80;95.50;;;;;;4213721;28;20481;-60
2024/04/07 05:19:37;;;;;;;0.00;0.00;;;16.70;95.50;;;;;;4230793;28;20387;-57
2024/04/07 05:21:38;;;;;;;0.45;0.32;;;16.70;95.60;;;;;;4230733;28;20055;-56
2024/04/07 05:23:40;;;;;;;0.32;0.30;;;16.80;95.70;;;;;;4229591;27;20055;-55
2024/04/07 05:25:41;;;;;;;0.75;0.10;;;16.70;95.80;;;;;;4229662;28;20047;-54
2024/04/07 05:27:44;;;;;;;0.65;0.20;;;16.70;96.10;;;;;;4229521;28;20043;-54
2024/04/07 05:29:47;;;;;;;0.10;0.10;;;16.70;95.80;;;;;;4229891;28;20043;-55
2024/04/07 05:31:50;;;;;;;2.53;0.20;;;16.80;95.90;;;;;;4230066;28;20059;-54
2024/04/07 05:33:51;;;;;;;0.25;0.10;;;16.80;95.40;;;;;;4228878;28;20047;-55
2024/04/07 05:35:52;;;;;;;0.47;0.20;;;16.80;95.50;;;;;;4229925;28;20040;-57
2024/04/07 05:37:54;;;;;;;0.85;0.30;;;16.70;95.50;;;;;;4229697;28;20044;-54
2024/04/07 05:39:55;;;;;;;0.68;0.10;;;16.70;95.40;;;;;;4230093;28;20097;-57
2024/04/07 05:41:56;;;;;;;1.48;0.20;;;16.70;95.30;;;;;;4229977;28;20040;-56
2024/04/07 05:43:58;;;;;;;0.63;0.10;;;16.70;95.90;;;;;;4229928;28;20043;-56
2024/04/07 05:46:03;;;;;;;1.17;0.22;;;16.80;95.20;;;;;;4229923;28;20040;-63
2024/04/07 05:48:05;;;;;;;0.22;0.22;;;16.80;95.50;;;;;;4230688;28;20044;-56
2024/04/07 05:50:06;;;;;;;2.90;0.65;;;16.90;95.30;;;;;;4230069;28;20043;-55
2024/04/07 05:52:07;;;;;;;2.25;1.00;;;16.90;95.20;;;;;;4229813;28;20043;-55
2024/04/07 05:54:08;;;;;;;0.15;0.15;;;16.90;95.30;;;;;;4229824;28;20056;-55
2024/04/07 05:56:10;;;;;;;1.98;0.80;;;16.80;95.20;;;;;;4229507;28;20051;-57
2024/04/07 05:58:12;;;;;;;0.20;0.20;;;16.80;95.70;;;;;;4229699;28;20044;-56
2024/04/07 06:00:15;;;;;;;0.75;0.20;;;16.80;95.20;;;;;;4229755;28;20408;-55
2024/04/07 06:02:17;;;;;;;0.38;0.10;;;16.80;95.60;;;;;;4230091;28;20096;-53
2024/04/07 06:04:18;;;;;;;0.15;0.15;;;16.90;95.50;;;;;;4230272;28;20043;-57
2024/04/07 06:06:19;;;;;;;0.25;0.25;;;16.90;95.40;;;;;;4229909;28;20051;-58
2024/04/07 06:08:20;;;;;;;0.93;0.22;;;16.90;95.40;;;;;;4229927;28;20047;-57
2024/04/07 06:10:22;;;;;;;1.65;0.90;;;16.90;95.30;;;;;;4229989;28;20401;-56
2024/04/07 06:12:23;;;;;;;1.00;0.70;;;16.80;95.90;;;;;;4229916;28;20168;-56
2024/04/07 06:14:24;;;;;;;1.02;0.43;;;16.80;95.80;;;;;;4229737;28;20039;-55
2024/04/07 06:16:27;;;;;;;0.63;0.17;;;16.80;95.70;;;;;;4230193;28;20047;-58
2024/04/07 06:18:28;;;;;;;0.10;0.10;;;16.70;95.00;;;;;;4229931;28;20039;-57
2024/04/07 06:20:29;;;;;;;0.70;0.32;;;16.80;95.60;;;;;;4212677;28;20398;-55
2024/04/07 06:22:31;;;;;;;0.25;0.20;;;16.80;95.10;;;;;;4229078;28;20044;-56
2024/04/07 06:24:32;;;;;;;2.45;0.10;;;16.70;95.20;;;;;;4229271;28;20528;-56
2024/04/07 06:26:34;;;;;;;1.35;0.20;;;16.80;95.40;;;;;;4229056;28;20059;-56
2024/04/07 06:28:35;;;;;;;0.40;0.17;;;16.90;95.40;;;;;;4229435;28;20517;-57
2024/04/07 06:30:37;;;;;;;0.95;0.88;;;16.80;95.90;;;;;;4229470;28;20044;-57
2024/04/07 06:32:40;;;;;;;0.80;0.50;;;16.80;95.40;;;;;;4229339;28;20059;-56
2024/04/07 06:34:41;;;;;;;0.25;0.20;;;16.80;95.20;;;;;;4229304;28;20145;-57
2024/04/07 06:36:42;;;;;;;0.10;0.10;;;16.70;95.50;;;;;;4229477;28;20413;-56
2024/04/07 06:38:45;;;;;;;0.85;0.60;;;16.80;95.20;;;;;;4229556;28;20066;-62
2024/04/07 06:40:46;;;;;;;0.10;0.10;;;16.90;95.00;;;;;;4229012;28;20044;-58
2024/04/07 06:42:48;;;;;;;0.20;0.20;;;16.90;95.30;;;;;;4229872;28;20044;-56
2024/04/07 06:44:49;;;;;;;0.00;0.00;;;16.80;95.00;;;;;;4231070;28;20063;-57
2024/04/07 06:46:50;;;;;;;0.85;0.50;;;16.80;95.20;;;;;;4233097;28;20169;-57
2024/04/07 06:48:53;;;;;;;0.13;0.05;;;16.90;95.20;;;;;;4232821;28;20047;-59
2024/04/07 06:50:54;;;;;;;0.45;0.10;;;16.90;95.10;;;;;;4232318;28;20051;-59
2024/04/07 06:52:55;;;;;;;3.83;0.52;;;16.90;95.50;;;;;;4232463;28;20096;-59
2024/04/07 06:54:57;;;;;;;0.28;0.10;;;16.80;95.80;;;;;;4232139;28;20043;-60
2024/04/07 06:56:58;;;;;;;0.90;0.10;;;16.80;95.30;;;;;;4232532;28;20043;-58
2024/04/07 06:58:59;;;;;;;0.20;0.20;;;16.80;95.10;;;;;;4232455;28;20050;-58
2024/04/07 07:01:00;;;;;;;0.17;0.00;;;16.80;95.00;;;;;;4232210;28;20044;-58
2024/04/07 07:03:02;;;;;;;0.00;0.00;;;16.80;95.00;;;;;;4215492;28;20044;-59
2024/04/07 07:05:05;;;;;;;0.20;0.03;;;16.80;94.80;;;;;;4232546;28;20568;-58
2024/04/07 07:07:06;;;;;;;0.10;0.00;;;16.80;95.10;;;;;;4232584;28;20066;-58
2024/04/07 07:09:07;;;;;;;0.10;0.00;;;16.70;94.80;;;;;;4232371;28;20040;-64
2024/04/07 07:11:10;;;;;;;0.28;0.20;;;16.70;95.10;;;;;;4232314;28;20613;-56
2024/04/07 07:13:11;;;;;;;0.13;0.10;;;16.80;94.90;;;;;;4231957;28;20043;-58
2024/04/07 07:15:13;;;;;;;1.17;0.20;;;16.80;94.90;;;;;;4232162;28;20117;-59
2024/04/07 07:17:14;;;;;;;0.57;0.20;;;16.80;95.10;;;;;;4233571;28;20048;-58
2024/04/07 07:19:16;;;;;;;0.10;0.10;;;16.70;94.70;;;;;;4232325;28;20141;-60
2024/04/07 07:21:19;;;;;;;0.73;0.20;;;16.80;95.10;;;;;;4232152;28;20397;-58
2024/04/07 07:23:20;;;;;;;0.45;0.45;;;16.80;95.00;;;;;;4231202;28;20085;-58
2024/04/07 07:25:21;;;;;;;0.40;0.40;;;16.80;94.70;;;;;;4231152;28;20104;-58
2024/04/07 07:27:22;;;;;;;0.22;0.05;;;16.80;94.90;;;;;;4231744;28;20124;-58
2024/04/07 07:29:24;;;;;;;0.00;0.00;;;16.80;94.70;;;;;;4232409;28;20401;-60
2024/04/07 07:31:25;;;;;;;0.28;0.20;;;16.80;94.60;;;;;;4232355;28;20050;-57
2024/04/07 07:33:26;;;;;;;0.20;0.10;;;16.80;95.20;;;;;;4232054;28;20052;-57
2024/04/07 07:35:28;;;;;;;0.10;0.10;;;16.70;94.60;;;;;;4232114;28;20120;-60
2024/04/07 07:37:30;;;;;;;0.10;0.10;;;16.80;94.70;;;;;;4231621;28;20048;-58
2024/04/07 07:39:31;;;;;;;0.22;0.20;;;16.80;94.50;;;;;;4231627;28;20048;-57
2024/04/07 07:41:32;;;;;;;0.40;0.15;;;16.90;94.40;;;;;;4231845;28;20048;-57
2024/04/07 07:43:34;;;;;;;0.57;0.20;;;16.90;94.20;;;;;;4231861;28;20048;-57
2024/04/07 07:45:35;;;;;;;0.10;0.10;;;16.90;94.70;;;;;;4232565;28;20047;-61
2024/04/07 07:47:36;;;;;;;0.10;0.10;;;16.90;94.20;;;;;;4232896;28;20051;-58
2024/04/07 07:49:38;;;;;;;0.15;0.15;;;16.90;94.60;;;;;;4214816;28;20379;-60
2024/04/07 07:51:39;;;;;;;0.25;0.10;;;17.00;94.40;;;;;;4231227;28;20051;-55
2024/04/07 07:53:41;;;;;;;0.10;0.10;;;17.10;94.50;;;;;;4231461;28;20093;-55
2024/04/07 07:55:42;;;;;;;2.03;0.75;;;17.10;94.10;;;;;;4231597;28;20040;-55
2024/04/07 07:57:43;;;;;;;4.47;0.68;;;17.10;94.30;;;;;;4230905;28;20043;-55
2024/04/07 07:59:45;;;;;;;0.10;0.10;;;17.20;94.20;;;;;;4214751;28;20123;-55
2024/04/07 08:01:46;;;;;;;6.22;0.13;;;17.20;94.00;;;;;;4231673;28;20466;-56
2024/04/07 08:03:47;;;;;;;0.08;0.00;;;17.20;94.20;;;;;;4232779;28;20044;-60
2024/04/07 08:05:48;;;;;;;2.28;0.85;;;17.20;93.90;;;;;;4232316;28;20048;-58
2024/04/07 08:07:49;;;;;;;0.80;0.10;;;17.30;94.10;;;;;;4231109;28;20044;-56
2024/04/07 08:09:52;;;;;;;0.22;0.10;;;17.20;94.20;;;;;;4231269;28;20050;-61
2024/04/07 08:11:53;;;;;;;0.55;0.20;;;17.30;94.30;;;;;;4231937;28;20054;-58
2024/04/07 08:13:55;;;;;;;0.93;0.32;;;17.30;94.30;;;;;;4232040;28;20554;-58
2024/04/07 08:15:56;;;;;;;0.40;0.10;;;17.30;93.90;;;;;;4232613;28;20073;-63
2024/04/07 08:17:57;;;;;;;2.50;0.22;;;17.40;94.20;;;;;;4232862;28;20044;-60
2024/04/07 08:19:58;;;;;;;0.65;0.45;;;17.50;93.80;;;;;;4231958;28;20441;-70
2024/04/07 08:22:00;;;;;;;0.28;0.25;;;17.50;93.80;;;;;;4231670;28;20500;-60
2024/04/07 08:24:01;;;;;;;0.98;0.45;;;17.50;94.20;;;;;;4231539;28;20369;-59
2024/04/07 08:26:04;;;;;;;2.72;0.75;;;17.50;93.90;;;;;;4231543;28;20039;-58
2024/04/07 08:28:05;;;;;;;0.20;0.20;;;17.50;93.80;;;;;;4214646;28;20043;-62
2024/04/07 08:30:07;;;;;;;0.13;0.13;;;17.40;93.90;;;;;;4231141;28;20047;-59
2024/04/07 08:32:08;;;;;;;0.57;0.20;;;17.40;93.90;;;;;;4231472;28;20436;-58
2024/04/07 08:34:09;;;;;;;3.30;0.55;;;17.40;94.00;;;;;;4231095;28;20436;-58
2024/04/07 08:36:11;;;;;;;1.08;0.28;;;17.40;94.10;;;;;;4231028;28;20054;-58
2024/04/07 08:38:12;;;;;;;1.17;0.30;;;17.40;94.10;;;;;;4231420;28;20118;-56
2024/04/07 08:40:13;;;;;;;0.40;0.10;;;17.40;93.80;;;;;;4230966;28;20454;-55
2024/04/07 08:42:16;;;;;;;0.43;0.43;;;17.40;94.00;;;;;;4214173;28;20066;-55
2024/04/07 08:44:19;;;;;;;0.65;0.38;;;17.50;93.70;;;;;;4230611;28;20439;-56
2024/04/07 08:46:22;;;;;;;3.15;1.10;;;17.50;94.20;;;;;;4231214;28;20491;-60
2024/04/07 08:48:24;;;;;;;1.55;0.68;;;17.50;94.20;;;;;;4230906;28;20482;-58
2024/04/07 08:50:26;;;;;;;0.40;0.10;;;17.60;94.10;;;;;;4230072;28;20406;-57
2024/04/07 08:52:28;;;;;;;0.20;0.08;;;17.70;94.00;;;;;;4230318;28;20052;-58
2024/04/07 08:54:30;;;;;;;4.82;0.68;;;17.70;94.00;;;;;;4230291;28;20043;-58
2024/04/07 08:56:37;;;;;;;0.10;0.10;;;17.70;93.40;;;;;;4231046;28;20043;-59
2024/04/07 08:58:40;;;;;;;0.52;0.50;;;17.60;93.40;;;;;;4231107;28;20481;-57
2024/04/07 09:00:44;;;;;;;0.15;0.10;;;17.60;93.40;;;;;;4230485;28;20043;-58
2024/04/07 09:02:47;;;;;;;4.10;0.63;;;17.60;93.40;;;;;;4230462;28;20081;-60
2024/04/07 09:04:48;;;;;;;1.27;0.10;;;17.70;93.10;;;;;;4229882;28;20096;-55
2024/04/07 09:06:49;;;;;;;0.85;0.20;;;17.70;92.90;;;;;;4230185;28;20048;-58
2024/04/07 09:08:51;;;;;;;0.20;0.20;;;17.80;93.10;;;;;;4213356;28;20040;-55
2024/04/07 09:10:52;;;;;;;1.50;0.75;;;17.80;93.10;;;;;;4230139;28;20047;-55
2024/04/07 09:12:53;;;;;;;1.45;0.10;;;17.80;93.10;;;;;;4230346;28;20047;-58
2024/04/07 09:14:56;;;;;;;0.65;0.52;;;17.80;92.70;;;;;;4230696;28;20054;-55
2024/04/07 09:17:04;;;;;;;0.75;0.68;;;17.80;92.70;;;;;;4230680;28;20054;-55
2024/04/07 09:19:06;;;;;;;0.20;0.20;;;17.90;93.00;;;;;;4229958;28;20043;-55
2024/04/07 09:21:15;;;;;;;1.20;0.35;;;17.90;92.80;;;;;;4229831;28;20077;-55
2024/04/07 09:23:16;;;;;;;0.25;0.20;;;17.90;92.30;;;;;;4229588;28;20062;-55
2024/04/07 09:25:18;;;;;;;0.52;0.30;;;18.00;92.90;;;;;;4213037;28;20052;-57
2024/04/07 09:27:19;;;;;;;0.47;0.10;;;18.10;93.10;;;;;;4229736;28;20058;-56
2024/04/07 09:29:20;;;;;;;0.35;0.20;;;18.30;93.30;;;;;;4230335;28;20117;-55
2024/04/07 09:31:23;;;;;;;2.72;0.73;;;18.40;93.40;;;;;;4230320;28;20382;-55
2024/04/07 09:33:24;;;;;;;0.77;0.30;;;18.60;92.90;;;;;;4229792;28;20051;-58
2024/04/07 09:35:26;;;;;;;0.65;0.45;;;18.80;93.10;;;;;;4230128;28;20047;-60
2024/04/07 09:37:27;;;;;;;0.80;0.50;;;18.70;92.00;;;;;;4230387;28;20047;-58
2024/04/07 09:39:28;;;;;;;0.60;0.45;;;18.70;92.00;;;;;;4213646;28;20048;-58
2024/04/07 09:41:30;;;;;;;0.38;0.20;;;18.80;92.00;;;;;;4229935;28;20081;-58
2024/04/07 09:43:33;;;;;;;0.52;0.52;;;18.90;91.80;;;;;;4229679;28;20071;-57
2024/04/07 09:45:37;;;;;;;3.55;1.15;;;18.90;92.20;;;;;;4230017;28;20040;-58
2024/04/07 09:47:44;;;;;;;0.95;0.30;;;19.10;92.30;;;;;;4212535;28;20048;-57
2024/04/07 09:49:47;;;;;;;0.55;0.10;;;19.20;91.70;;;;;;4229633;28;20048;-58
2024/04/07 09:51:54;;;;;;;1.45;0.30;;;19.30;92.00;;;;;;4212776;28;20066;-58
2024/04/07 09:54:02;;;;;;;0.15;0.05;;;19.50;92.00;;;;;;4229396;28;20035;-61
2024/04/07 09:56:04;;;;;;;0.10;0.10;;;19.50;91.80;;;;;;4229190;28;20066;-61
2024/04/07 09:58:08;;;;;;;1.67;0.28;;;19.60;91.50;;;;;;4229378;28;20044;-61
2024/04/07 10:00:12;;;;;;;0.10;0.10;;;19.60;91.10;;;;;;4211869;28;20048;-57
2024/04/07 10:02:13;;;;;;;0.28;0.15;;;19.70;91.00;;;;;;4229107;28;20051;-58
2024/04/07 10:04:17;;;;;;;1.25;0.70;;;19.70;91.10;;;;;;4229616;28;20171;-58
2024/04/07 10:06:19;;;;;;;4.18;0.30;;;19.60;91.20;;;;;;4229553;28;20483;-62
2024/04/07 10:08:21;;;;;;;0.30;0.20;;;19.70;91.20;;;;;;4226098;28;20137;-60
2024/04/07 10:10:25;;;;;;;1.77;0.10;;;19.60;91.00;;;;;;4227722;28;20047;-59
2024/04/07 10:12:28;;;;;;;0.20;0.17;;;19.60;91.60;;;;;;4223573;28;20040;-60
2024/04/07 10:14:36;;;;;;;1.90;0.57;;;19.60;91.30;;;;;;4211821;28;20059;-61
2024/04/07 10:16:37;;;;;;;0.88;0.52;;;19.50;91.00;;;;;;4217651;28;20047;-60
2024/04/07 10:18:40;;;;;;;0.60;0.30;;;19.30;90.60;;;;;;4218297;28;20048;-58
2024/04/07 10:20:42;;;;;;;0.85;0.45;;;19.20;90.40;;;;;;4215325;28;20075;-59
2024/04/07 10:22:44;;;;;;;0.57;0.20;;;19.20;91.30;;;;;;4227971;28;20124;-63
2024/04/07 10:24:48;;;;;;;0.38;0.10;;;19.40;91.50;;;;;;4232650;28;20043;-58
2024/04/07 10:26:52;;;;;;;0.30;0.15;;;19.40;90.70;;;;;;4209753;28;20518;-58
2024/04/07 10:28:58;;;;;;;1.50;0.20;;;19.50;91.40;;;;;;4207901;28;20044;-62
2024/04/07 10:30:59;;;;;;;1.48;0.30;;;19.40;91.10;;;;;;4231806;28;20051;-67
2024/04/07 10:33:02;;;;;;;0.20;0.20;;;19.50;91.20;;;;;;4219311;28;20044;-58
2024/04/07 10:35:06;;;;;;;0.50;0.45;;;19.40;91.40;;;;;;4232236;28;20073;-57
2024/04/07 10:37:10;;;;;;;0.30;0.20;;;19.30;90.60;;;;;;4228678;28;20071;-59
2024/04/07 10:39:16;;;;;;;0.63;0.40;;;19.30;90.60;;;;;;4224594;28;20051;-62